Terminal Aerodrome Forecast
Issued by NWS

Home | Current Version | Previous Version | Text Only | Print | Product List | Glossary Off
Versions: 1 2 3 4 5 6 7 8 9 10 11 12 13 14 15 16 17 18 19 20 21 22 23 24

000
FTUS43 KTOP 050115 AAA
TAFFOE
TAF AMD
KFOE 050115Z 0501/0524 20004KT P6SM SKC
      TEMPO 0503/0507 4SM BR
     FM051600 18013G23KT P6SM SKC=

USA.gov is the U.S. government's official web portal to all federal, state and local government web resources and services.